createdAt,value
2019-03-04T00:02:10.935Z,13.40
2019-03-04T00:04:37.868Z,13.30
2019-03-04T00:07:04.827Z,13.22
2019-03-04T00:09:31.787Z,13.19
2019-03-04T00:11:58.741Z,13.16
2019-03-04T00:14:25.749Z,13.13
2019-03-04T00:16:52.699Z,13.07
2019-03-04T00:19:19.647Z,13.02
2019-03-04T00:21:46.581Z,12.97
2019-03-04T00:24:13.552Z,12.93
2019-03-04T00:26:40.950Z,12.86
2019-03-04T00:29:08.370Z,12.79
2019-03-04T00:31:35.802Z,12.79
2019-03-04T00:34:03.263Z,12.78
2019-03-04T00:36:30.725Z,12.77
2019-03-04T00:38:58.223Z,12.67
2019-03-04T00:41:25.646Z,12.54
2019-03-04T00:43:53.058Z,12.46
2019-03-04T00:46:21.310Z,12.40
2019-03-04T00:48:48.735Z,12.37
2019-03-04T00:51:16.143Z,12.39
2019-03-04T00:53:43.585Z,12.37
2019-03-04T00:56:10.971Z,12.39
2019-03-04T00:58:38.392Z,12.41
2019-03-04T01:01:05.803Z,12.40
2019-03-04T01:03:33.208Z,12.44
2019-03-04T01:06:00.591Z,12.47
2019-03-04T01:08:28.023Z,12.49
2019-03-04T01:10:55.438Z,12.53
2019-03-04T01:13:22.847Z,12.57
2019-03-04T01:15:50.247Z,12.59
2019-03-04T01:18:17.648Z,12.61
2019-03-04T01:20:45.118Z,12.62
2019-03-04T01:23:12.525Z,12.63
2019-03-04T01:25:39.959Z,12.66
2019-03-04T01:28:07.577Z,12.68
2019-03-04T01:30:34.985Z,12.68
2019-03-04T01:33:02.390Z,12.66
2019-03-04T01:35:29.801Z,12.66
2019-03-04T01:37:57.188Z,12.70
2019-03-04T01:40:24.596Z,12.71
2019-03-04T01:42:52.023Z,12.72
2019-03-04T01:45:19.440Z,12.72
2019-03-04T01:47:46.830Z,12.66
2019-03-04T01:50:17.771Z,12.62
2019-03-04T01:52:45.175Z,12.59
2019-03-04T01:55:12.714Z,12.60
2019-03-04T01:57:40.115Z,12.60
2019-03-04T02:00:07.525Z,12.59
2019-03-04T02:02:34.956Z,12.61
2019-03-04T02:05:02.388Z,12.64
2019-03-04T02:07:30.576Z,12.62
2019-03-04T02:09:57.982Z,12.62
2019-03-04T02:12:25.390Z,12.63
2019-03-04T02:14:52.814Z,12.63
2019-03-04T02:17:20.206Z,12.65
2019-03-04T02:19:47.658Z,12.63
2019-03-04T02:22:15.068Z,12.63
2019-03-04T02:24:42.519Z,12.65
2019-03-04T02:27:09.921Z,12.67
2019-03-04T02:29:37.329Z,12.67
2019-03-04T02:32:04.728Z,12.63
2019-03-04T02:34:32.142Z,12.64
2019-03-04T02:36:59.566Z,12.62
2019-03-04T02:39:27.017Z,12.60
2019-03-04T02:41:54.425Z,12.58
2019-03-04T02:44:21.840Z,12.58
2019-03-04T02:46:49.289Z,12.60
2019-03-04T02:49:16.752Z,12.63
2019-03-04T02:51:44.178Z,12.66
2019-03-04T02:54:11.599Z,12.65
2019-03-04T02:56:39.021Z,12.65
2019-03-04T02:59:06.416Z,12.65
2019-03-04T03:01:33.823Z,12.64
2019-03-04T03:04:01.207Z,12.65
2019-03-04T03:06:28.734Z,12.77
2019-03-04T03:08:56.376Z,12.89
2019-03-04T03:11:23.770Z,13.01
2019-03-04T03:13:51.161Z,13.09
2019-03-04T03:16:18.558Z,13.13
2019-03-04T03:18:45.971Z,13.14
2019-03-04T03:21:13.389Z,13.26
2019-03-04T03:23:40.781Z,13.32
2019-03-04T03:26:07.812Z,13.34
2019-03-04T03:28:35.326Z,13.35
2019-03-04T03:31:02.286Z,13.33
2019-03-04T03:33:29.248Z,13.30
2019-03-04T03:35:56.248Z,13.22
2019-03-04T03:38:23.165Z,13.11
2019-03-04T03:40:50.183Z,13.05
2019-03-04T03:43:17.614Z,13.04
2019-03-04T03:45:45.090Z,13.01
2019-03-04T03:48:12.895Z,12.94
2019-03-04T03:50:40.297Z,12.87
2019-03-04T03:53:07.762Z,12.83
2019-03-04T03:55:35.947Z,12.78
2019-03-04T03:58:03.376Z,12.90
2019-03-04T04:00:30.778Z,13.24
2019-03-04T04:02:57.733Z,13.41
2019-03-04T04:05:25.050Z,13.57
2019-03-04T04:07:51.995Z,13.72
2019-03-04T04:10:18.989Z,13.80
2019-03-04T04:12:46.009Z,13.95
2019-03-04T04:15:13.001Z,14.11
2019-03-04T04:17:40.090Z,14.23
2019-03-04T04:20:07.076Z,14.31
2019-03-04T04:22:34.027Z,14.31
2019-03-04T04:25:00.965Z,14.32
2019-03-04T04:27:27.902Z,14.32
2019-03-04T04:29:54.882Z,14.37
2019-03-04T04:32:21.959Z,14.38
2019-03-04T04:34:48.921Z,14.34
2019-03-04T04:37:15.884Z,14.28
2019-03-04T04:39:43.031Z,14.20
2019-03-04T04:42:13.772Z,14.16
2019-03-04T04:44:40.695Z,14.09
2019-03-04T04:47:07.690Z,14.03
2019-03-04T04:49:34.691Z,14.01
2019-03-04T04:52:01.665Z,13.96
2019-03-04T04:54:28.598Z,13.92
2019-03-04T04:56:55.550Z,13.89
2019-03-04T04:59:22.561Z,13.85
2019-03-04T05:01:49.508Z,13.82
2019-03-04T05:04:16.475Z,13.81
2019-03-04T05:06:43.449Z,13.81
2019-03-04T05:09:10.444Z,13.78
2019-03-04T05:11:37.478Z,13.73
2019-03-04T05:14:04.401Z,13.69
2019-03-04T05:16:31.377Z,13.66
2019-03-04T05:18:58.500Z,13.61
2019-03-04T05:21:25.447Z,13.54
2019-03-04T05:23:52.400Z,13.49
2019-03-04T05:26:19.386Z,13.46
2019-03-04T05:28:46.387Z,13.42
2019-03-04T05:31:13.382Z,13.40
2019-03-04T05:33:40.323Z,13.39
2019-03-04T05:36:07.325Z,13.36
2019-03-04T05:38:34.453Z,13.37
2019-03-04T05:41:01.413Z,13.39
2019-03-04T05:43:28.374Z,13.42
2019-03-04T05:45:55.376Z,13.46
2019-03-04T05:48:22.357Z,13.46
2019-03-04T05:50:49.344Z,13.50
2019-03-04T05:53:16.272Z,13.53
2019-03-04T05:55:43.212Z,13.55
2019-03-04T05:58:10.222Z,13.57
2019-03-04T06:00:37.306Z,13.57
2019-03-04T06:03:04.311Z,13.58
2019-03-04T06:05:31.254Z,13.58
2019-03-04T06:07:59.150Z,13.58
2019-03-04T06:10:26.150Z,13.57
2019-03-04T06:12:53.106Z,13.60
2019-03-04T06:15:20.075Z,13.64
2019-03-04T06:17:47.075Z,13.69
2019-03-04T06:20:14.635Z,13.71
2019-03-04T06:22:41.656Z,13.73
2019-03-04T06:25:09.488Z,13.72
2019-03-04T06:27:36.479Z,13.71
2019-03-04T06:30:03.467Z,13.71
2019-03-04T06:32:30.414Z,13.72
2019-03-04T06:34:57.379Z,13.71
2019-03-04T06:37:24.449Z,13.69
2019-03-04T06:39:51.405Z,13.66
2019-03-04T06:42:18.378Z,13.66
2019-03-04T06:44:45.333Z,13.63
2019-03-04T06:47:12.276Z,13.62
2019-03-04T06:49:39.219Z,13.62
2019-03-04T06:52:06.213Z,13.60
2019-03-04T06:54:35.240Z,13.59
2019-03-04T06:57:02.178Z,13.59
2019-03-04T06:59:30.928Z,13.59
2019-03-04T07:01:57.873Z,13.60
2019-03-04T07:04:26.500Z,13.61
2019-03-04T07:06:53.447Z,13.61
2019-03-04T07:09:21.265Z,13.60
2019-03-04T07:11:48.191Z,13.62
2019-03-04T07:14:16.290Z,13.62
2019-03-04T07:16:43.409Z,13.65
2019-03-04T07:19:10.432Z,13.68
2019-03-04T07:21:37.396Z,13.70
2019-03-04T07:24:04.326Z,13.71
2019-03-04T07:26:31.339Z,13.71
2019-03-04T07:28:58.441Z,13.72
2019-03-04T07:31:25.410Z,13.74
2019-03-04T07:33:52.436Z,13.75
2019-03-04T07:36:19.379Z,13.79
2019-03-04T07:38:50.131Z,13.81
2019-03-04T07:41:17.240Z,13.85
2019-03-04T07:43:44.220Z,13.88
2019-03-04T07:46:11.172Z,13.86
2019-03-04T07:48:38.111Z,13.82
2019-03-04T07:51:20.173Z,13.80
2019-03-04T07:53:47.219Z,13.78
2019-03-04T07:56:14.207Z,13.77
2019-03-04T07:58:41.283Z,13.70
2019-03-04T08:01:08.291Z,13.64
2019-03-04T08:03:35.277Z,13.61
2019-03-04T08:06:02.281Z,13.58
2019-03-04T08:08:29.477Z,13.57
2019-03-04T08:10:57.896Z,13.57
2019-03-04T08:13:26.733Z,13.54
2019-03-04T08:15:53.702Z,13.53
2019-03-04T08:18:20.672Z,13.48
2019-03-04T08:20:47.790Z,13.49
2019-03-04T08:23:14.843Z,13.48
2019-03-04T08:25:41.848Z,13.44
2019-03-04T08:28:08.927Z,13.38
2019-03-04T08:30:35.871Z,13.36
2019-03-04T08:33:02.847Z,13.33
2019-03-04T08:35:29.792Z,13.32
2019-03-04T08:37:56.735Z,13.29
2019-03-04T08:40:23.680Z,13.28
2019-03-04T08:42:50.744Z,13.26
2019-03-04T08:45:17.800Z,13.21
2019-03-04T08:47:44.817Z,13.16
2019-03-04T08:50:11.753Z,13.11
2019-03-04T08:52:38.733Z,13.04
2019-03-04T08:55:05.804Z,12.95
2019-03-04T08:57:32.833Z,12.85
2019-03-04T08:59:59.802Z,12.77
2019-03-04T09:02:26.788Z,12.71
2019-03-04T09:04:53.845Z,12.65
2019-03-04T09:07:20.811Z,12.58
2019-03-04T09:09:48.207Z,12.49
2019-03-04T09:12:15.638Z,12.44
2019-03-04T09:14:43.044Z,12.32
2019-03-04T09:17:10.719Z,12.15
2019-03-04T09:19:37.979Z,12.00
2019-03-04T09:22:05.381Z,11.79
2019-03-04T09:24:32.840Z,11.64
2019-03-04T09:27:00.337Z,11.49
2019-03-04T09:29:27.745Z,11.34
2019-03-04T09:31:55.165Z,11.18
2019-03-04T09:34:22.559Z,11.16
2019-03-04T09:36:50.009Z,11.22
2019-03-04T09:39:16.958Z,11.26
2019-03-04T09:41:44.381Z,11.27
2019-03-04T09:44:11.914Z,11.18
2019-03-04T09:46:39.507Z,11.12
2019-03-04T09:49:06.927Z,11.05
2019-03-04T09:51:34.352Z,11.00
2019-03-04T09:54:01.777Z,10.87
2019-03-04T09:56:29.260Z,10.74
2019-03-04T09:58:56.671Z,10.80
2019-03-04T10:01:25.556Z,10.82
2019-03-04T10:06:53.706Z,11.02
2019-03-04T10:09:31.843Z,11.08
2019-03-04T10:15:20.462Z,11.40
2019-03-04T10:18:08.075Z,11.31
2019-03-04T10:20:54.248Z,11.35
2019-03-04T10:23:23.455Z,11.39
2019-03-04T10:25:56.676Z,11.44
2019-03-04T10:28:39.920Z,11.53
2019-03-04T10:31:14.971Z,11.53
2019-03-04T10:33:58.046Z,11.49
2019-03-04T10:36:28.151Z,11.43
2019-03-04T10:39:10.937Z,11.41
2019-03-04T10:41:45.983Z,11.42
2019-03-04T10:44:14.191Z,11.45
2019-03-04T10:46:51.226Z,11.41
2019-03-04T10:49:18.761Z,11.40
2019-03-04T10:51:46.161Z,11.40
2019-03-04T10:54:13.999Z,11.41
2019-03-04T10:56:42.451Z,11.45
2019-03-04T10:59:08.917Z,11.46
2019-03-04T11:01:36.448Z,11.55
2019-03-04T11:04:04.064Z,11.62
2019-03-04T11:06:31.531Z,11.67
2019-03-04T11:08:59.014Z,11.73
2019-03-04T11:11:29.770Z,11.74
2019-03-04T11:13:53.841Z,11.83
2019-03-04T11:16:21.248Z,11.94
2019-03-04T11:18:48.657Z,12.01
2019-03-04T11:21:16.215Z,12.14
2019-03-04T11:23:43.635Z,12.18
2019-03-04T11:26:11.107Z,12.12
2019-03-04T11:28:38.743Z,12.07
2019-03-04T11:31:06.195Z,11.99
2019-03-04T11:33:33.587Z,11.90
2019-03-04T11:36:01.027Z,11.91
2019-03-04T11:38:39.936Z,11.93
2019-03-04T11:41:07.371Z,12.02
2019-03-04T11:43:35.322Z,12.07
2019-03-04T11:46:02.943Z,12.04
2019-03-04T11:48:30.343Z,12.11
2019-03-04T11:50:57.757Z,12.15
2019-03-04T11:53:25.251Z,12.16
2019-03-04T11:55:53.526Z,12.12
2019-03-04T11:58:20.563Z,12.18
2019-03-04T12:03:44.321Z,12.55
2019-03-04T12:06:11.760Z,12.89
2019-03-04T12:08:39.242Z,13.04
2019-03-04T12:11:06.717Z,13.47
2019-03-04T12:13:34.195Z,13.48
2019-03-04T12:16:01.708Z,13.21
2019-03-04T12:18:29.174Z,12.97
2019-03-04T12:20:56.594Z,12.86
2019-03-04T12:23:24.043Z,12.64
2019-03-04T12:25:51.475Z,12.67
2019-03-04T12:28:19.091Z,13.09
2019-03-04T12:30:46.747Z,13.21
2019-03-04T12:33:14.142Z,13.99
2019-03-04T12:35:41.555Z,15.24
2019-03-04T12:38:09.087Z,15.37
2019-03-04T12:40:36.505Z,15.56
2019-03-04T12:43:04.427Z,14.97
2019-03-04T12:45:34.639Z,14.78
2019-03-04T12:47:59.360Z,14.30
2019-03-04T12:50:27.750Z,13.90
2019-03-04T12:52:55.141Z,13.57
2019-03-04T12:55:22.544Z,13.51
2019-03-04T12:57:50.065Z,13.58
2019-03-04T13:00:23.981Z,13.42
2019-03-04T13:02:57.468Z,13.35
2019-03-04T13:05:19.386Z,13.24
2019-03-04T13:07:46.844Z,13.22
2019-03-04T13:10:14.235Z,13.24
2019-03-04T13:12:41.652Z,13.19
2019-03-04T13:15:12.473Z,13.03
2019-03-04T13:17:39.868Z,13.05
2019-03-04T13:20:07.335Z,13.01
2019-03-04T13:22:34.722Z,13.01
2019-03-04T13:25:02.148Z,12.96
2019-03-04T13:27:29.550Z,12.94
2019-03-04T13:29:57.001Z,12.89
2019-03-04T13:32:24.405Z,12.96
2019-03-04T13:34:51.903Z,13.24
2019-03-04T13:37:19.536Z,13.18
2019-03-04T13:39:46.939Z,13.03
2019-03-04T13:42:14.339Z,12.86
2019-03-04T13:44:42.159Z,12.74
2019-03-04T13:47:09.624Z,12.64
2019-03-04T13:49:37.041Z,12.55
2019-03-04T13:52:04.466Z,12.51
2019-03-04T13:54:31.905Z,12.55
2019-03-04T13:56:59.314Z,12.75
2019-03-04T13:59:26.737Z,13.01
2019-03-04T14:01:54.138Z,13.00
2019-03-04T14:04:21.566Z,13.01
2019-03-04T14:06:48.975Z,13.01
2019-03-04T14:09:16.389Z,12.94
2019-03-04T14:11:43.831Z,12.90
2019-03-04T14:14:11.366Z,12.74
2019-03-04T14:16:38.785Z,12.66
2019-03-04T14:19:06.227Z,12.68
2019-03-04T14:21:33.654Z,12.87
2019-03-04T14:24:01.113Z,13.02
2019-03-04T14:26:28.571Z,13.87
2019-03-04T14:28:55.998Z,13.74
2019-03-04T14:31:23.406Z,13.99
2019-03-04T14:33:50.814Z,14.76
2019-03-04T14:36:18.281Z,14.39
2019-03-04T14:38:45.680Z,13.88
2019-03-04T14:41:13.077Z,13.62
2019-03-04T14:43:40.649Z,13.40
2019-03-04T14:46:08.086Z,13.31
2019-03-04T14:48:35.512Z,13.37
2019-03-04T14:51:02.904Z,13.45
2019-03-04T14:53:30.366Z,14.27
2019-03-04T14:55:58.590Z,15.18
2019-03-04T14:58:26.028Z,16.37
2019-03-04T15:00:53.435Z,17.88
2019-03-04T15:03:23.636Z,17.88
2019-03-04T15:05:48.309Z,18.26
2019-03-04T15:08:15.750Z,19.79
2019-03-04T15:10:42.714Z,20.72
2019-03-04T15:13:10.235Z,18.11
2019-03-04T15:15:37.604Z,16.43
2019-03-04T15:18:05.006Z,15.24
2019-03-04T15:20:33.853Z,14.44
2019-03-04T15:23:01.317Z,14.03
2019-03-04T15:25:30.663Z,13.66
2019-03-04T15:28:08.981Z,13.58
2019-03-04T15:30:37.408Z,15.36
2019-03-04T15:33:04.855Z,18.72
2019-03-04T15:35:32.250Z,18.49
2019-03-04T15:37:59.820Z,21.95
2019-03-04T15:40:27.765Z,24.08
2019-03-04T15:42:55.345Z,22.96
2019-03-04T15:45:22.771Z,25.74
2019-03-04T15:47:50.800Z,22.11
2019-03-04T15:50:18.218Z,23.65
2019-03-04T15:52:45.728Z,26.14
2019-03-04T15:55:13.253Z,25.59
2019-03-04T15:57:41.595Z,24.63
2019-03-04T16:00:12.587Z,25.86
2019-03-04T16:02:40.033Z,18.69
2019-03-04T16:05:09.245Z,24.88
2019-03-04T16:07:37.787Z,23.11
2019-03-04T16:10:11.754Z,26.53
2019-03-04T16:12:39.192Z,27.82
2019-03-04T16:15:06.965Z,26.45
2019-03-04T16:17:34.361Z,27.20
2019-03-04T16:20:01.343Z,28.22
2019-03-04T16:22:28.746Z,28.96
2019-03-04T16:24:56.204Z,28.92
2019-03-04T16:27:23.602Z,22.73
2019-03-04T16:29:51.084Z,25.99
2019-03-04T16:32:19.281Z,27.50
2019-03-04T16:34:46.799Z,27.77
2019-03-04T16:37:14.401Z,26.37
2019-03-04T16:39:41.902Z,25.51
2019-03-04T16:42:09.303Z,19.25
2019-03-04T16:44:36.759Z,16.06
2019-03-04T16:47:04.273Z,14.65
2019-03-04T16:49:31.687Z,14.16
2019-03-04T16:51:59.077Z,13.75
2019-03-04T16:54:27.690Z,13.25
2019-03-04T16:56:55.230Z,12.88
2019-03-04T16:59:22.727Z,12.55
2019-03-04T17:01:50.189Z,12.42
2019-03-04T17:04:17.603Z,12.37
2019-03-04T17:06:45.016Z,12.22
2019-03-04T17:09:14.263Z,12.07
2019-03-04T17:11:41.733Z,12.08
2019-03-04T17:14:09.142Z,12.19
2019-03-04T17:16:37.039Z,12.14
2019-03-04T17:19:04.424Z,12.12
2019-03-04T17:21:31.884Z,12.07
2019-03-04T17:23:59.866Z,12.00
2019-03-04T17:26:27.360Z,11.97
2019-03-04T17:28:56.461Z,11.88
2019-03-04T17:31:24.070Z,11.78
2019-03-04T17:33:51.465Z,11.74
2019-03-04T17:36:18.980Z,11.68
2019-03-04T17:38:46.389Z,11.63
2019-03-04T17:41:13.821Z,11.60
2019-03-04T17:43:41.242Z,11.56
2019-03-04T17:46:08.647Z,11.51
2019-03-04T17:48:36.499Z,11.47
2019-03-04T17:51:06.065Z,11.41
2019-03-04T17:53:31.376Z,11.31
2019-03-04T17:55:58.882Z,11.24
2019-03-04T17:58:26.611Z,11.27
2019-03-04T18:00:54.024Z,11.23
2019-03-04T18:03:21.416Z,11.25
2019-03-04T18:05:48.972Z,11.26
2019-03-04T18:08:16.371Z,11.30
2019-03-04T18:10:43.767Z,11.29
2019-03-04T18:13:11.188Z,11.28
2019-03-04T18:15:38.638Z,11.27
2019-03-04T18:18:06.031Z,11.22
2019-03-04T18:20:34.670Z,11.19
2019-03-04T18:23:01.066Z,11.19
2019-03-04T18:28:46.192Z,11.49
2019-03-04T18:31:13.642Z,11.40
2019-03-04T18:37:12.941Z,11.47
2019-03-04T18:42:43.854Z,11.52
2019-03-04T18:48:13.004Z,11.49
2019-03-04T18:50:40.506Z,11.25
2019-03-04T18:53:07.907Z,11.17
2019-03-04T18:55:37.339Z,11.08
2019-03-04T18:58:02.913Z,11.05
2019-03-04T19:00:30.327Z,11.01
2019-03-04T19:02:57.819Z,10.94
2019-03-04T19:05:25.237Z,10.83
2019-03-04T19:07:52.738Z,10.81
2019-03-04T19:10:20.140Z,10.73
2019-03-04T19:12:47.598Z,10.64
2019-03-04T19:15:15.111Z,10.55
2019-03-04T19:17:42.529Z,10.52
2019-03-04T19:20:14.608Z,10.50
2019-03-04T19:22:42.081Z,10.46
2019-03-04T19:25:09.495Z,10.43
2019-03-04T19:27:36.889Z,10.44
2019-03-04T19:30:12.839Z,10.42
2019-03-04T19:32:40.659Z,10.40
2019-03-04T19:35:09.020Z,10.38
2019-03-04T19:37:36.431Z,10.34
2019-03-04T19:40:06.098Z,10.25
2019-03-04T19:42:31.264Z,10.27
2019-03-04T19:44:58.696Z,10.28
2019-03-04T19:47:26.085Z,10.27
2019-03-04T19:49:53.486Z,10.29
2019-03-04T19:52:20.897Z,10.32
2019-03-04T19:54:48.323Z,10.31
2019-03-04T19:57:15.718Z,10.32
2019-03-04T19:59:43.159Z,10.31
2019-03-04T20:02:10.600Z,10.28
2019-03-04T20:04:37.985Z,10.27
2019-03-04T20:07:05.838Z,10.24
2019-03-04T20:09:33.299Z,10.24
2019-03-04T20:12:00.712Z,10.24
2019-03-04T20:14:28.122Z,10.22
2019-03-04T20:16:55.543Z,10.18
2019-03-04T20:19:22.958Z,10.17
2019-03-04T20:21:50.431Z,10.13
2019-03-04T20:24:18.080Z,10.12
2019-03-04T20:26:45.603Z,10.13
2019-03-04T20:29:13.061Z,10.15
2019-03-04T20:31:40.596Z,10.15
2019-03-04T20:34:08.017Z,10.14
2019-03-04T20:36:35.457Z,10.20
2019-03-04T20:39:02.981Z,10.26
2019-03-04T20:41:30.391Z,10.26
2019-03-04T20:43:57.803Z,10.28
2019-03-04T20:46:25.212Z,10.26
2019-03-04T20:48:52.616Z,10.24
2019-03-04T20:51:20.174Z,10.22
2019-03-04T20:53:47.582Z,10.26
2019-03-04T20:56:15.025Z,10.33
2019-03-04T20:58:42.435Z,10.24
2019-03-04T21:01:09.868Z,10.16
2019-03-04T21:03:38.704Z,10.16
2019-03-04T21:06:04.788Z,10.20
2019-03-04T21:08:32.247Z,10.18
2019-03-04T21:10:59.761Z,10.17
2019-03-04T21:13:35.271Z,10.17
2019-03-04T21:15:54.764Z,10.21
2019-03-04T21:18:22.224Z,10.15
2019-03-04T21:20:49.679Z,10.14
2019-03-04T21:23:17.071Z,10.10
2019-03-04T21:29:04.955Z,10.28
2019-03-04T21:31:33.922Z,10.20
2019-03-04T21:34:21.166Z,10.13
2019-03-04T21:36:51.139Z,10.13
2019-03-04T21:39:25.272Z,10.15
2019-03-04T21:42:04.686Z,10.12
2019-03-04T21:44:57.029Z,10.07
2019-03-04T21:47:26.499Z,10.10
2019-03-04T21:49:53.894Z,10.12
2019-03-04T21:52:37.136Z,10.09
2019-03-04T21:55:05.332Z,10.07
2019-03-04T21:57:33.772Z,10.08
2019-03-04T22:00:01.213Z,10.01
2019-03-04T22:02:30.540Z,10.04
2019-03-04T22:04:57.986Z,10.09
2019-03-04T22:07:25.389Z,10.07
2019-03-04T22:09:53.623Z,10.14
2019-03-04T22:12:21.023Z,10.21
2019-03-04T22:14:48.485Z,10.20
2019-03-04T22:17:15.936Z,10.15
2019-03-04T22:19:43.349Z,10.14
2019-03-04T22:22:10.734Z,10.15
2019-03-04T22:24:38.361Z,10.13
2019-03-04T22:27:05.781Z,10.12
2019-03-04T22:29:33.175Z,10.03
2019-03-04T22:32:00.560Z,10.06
2019-03-04T22:34:27.986Z,10.08
2019-03-04T22:36:55.451Z,10.14
2019-03-04T22:39:22.825Z,10.21
2019-03-04T22:41:50.362Z,10.26
2019-03-04T22:44:17.753Z,10.22
2019-03-04T22:46:45.177Z,10.17
2019-03-04T22:49:12.694Z,10.15
2019-03-04T22:51:40.134Z,10.19
2019-03-04T22:54:07.580Z,10.24
2019-03-04T22:56:34.998Z,10.28
2019-03-04T22:59:02.388Z,10.36
2019-03-04T23:01:30.613Z,10.37
2019-03-04T23:03:58.009Z,10.36
2019-03-04T23:06:27.343Z,10.36
2019-03-04T23:08:54.984Z,10.41
2019-03-04T23:11:23.315Z,10.43
2019-03-04T23:13:59.288Z,10.43
2019-03-04T23:16:26.740Z,10.42
2019-03-04T23:18:54.158Z,10.34
2019-03-04T23:21:21.552Z,10.31
2019-03-04T23:23:49.026Z,10.21
2019-03-04T23:26:16.437Z,10.16
2019-03-04T23:28:43.905Z,10.20
2019-03-04T23:31:11.290Z,10.25
2019-03-04T23:33:38.752Z,10.26
2019-03-04T23:36:06.545Z,10.32
2019-03-04T23:38:34.060Z,10.31
2019-03-04T23:41:01.451Z,10.33
2019-03-04T23:43:28.872Z,10.35
2019-03-04T23:45:56.289Z,10.33
2019-03-04T23:48:23.704Z,10.29
2019-03-04T23:50:51.123Z,10.28
2019-03-04T23:53:18.546Z,10.25
2019-03-04T23:55:45.964Z,10.24
2019-03-04T23:58:13.370Z,10.24
